Flight Track Log - Related Links

Times and Time Zones

All times are in EST time to prevent confusion due to time zone crossing. See the UAL3740 flight status page for this flight to view local times or setup timezone preferences in your user account.

Time Position Orientation Groundspeed Altitude Reporting Facility
EST Latitude Longitude Course Direction KTS MPH feet Rate Location/Type
Sat 02:43:17 PM 41.9333 -87.9000 90° East 177 204 2,600  Level Chicago TRACON
Sat 02:44:17 PM 41.8833 -87.8333 135° Southeast 223 257 4,900 2,017 Climbing Chicago TRACON
Sat 02:45:13 PM 41.8408 -87.7647 130° Southeast 273 314 6,500 2,136 Climbing Chicago Center
Sat 02:46:00 PM 41.9412 -87.2345 96° East  Level FlightAware Approximate
Sat 02:46:15 PM 41.8078 -87.6625 113° Southeast 321 369 9,100  Level Chicago Center
Sat 02:47:00 PM 41.9333 -87.0683 90° East  Level FlightAware Approximate
Sat 02:47:17 PM 41.8383 -87.5350 72° East 335 386 12,000  Level Chicago Center
Sat 02:48:00 PM 41.9333 -86.9349 90° East  Level FlightAware Approximate
Sat 02:48:19 PM 41.8675 -87.4083 73° East 354 407 13,900  Level Chicago Center
Sat 02:49:21 PM 41.8992 -87.2694 73° East 386 444 16,100 2,081 Climbing Chicago Center
Sat 02:50:23 PM 41.9319 -87.1236 73° East 401 461 18,200 1,887 Climbing Chicago Center
Sat 02:51:25 PM 41.9461 -86.9525 84° East 424 488 20,000 1,790 Climbing Chicago Center
Sat 02:52:27 PM 41.9494 -86.7881 88° East 437 503 21,900 1,645 Climbing Chicago Center
Sat 02:53:29 PM 41.9508 -86.6358 89° East 449 517 23,400 1,452 Climbing Chicago Center
Sat 02:54:31 PM 41.9536 -86.4628 89° East 462 532 24,900 1,463 Climbing Chicago Center
Sat 02:55:32 PM 41.9544 -86.2444 90° East 486 559 26,400 1,024 Climbing Chicago Center
Sat 02:56:34 PM 41.9128 -86.0697 108° East 490 564 27,000 387 Climbing Chicago Center
Sat 02:57:36 PM 41.8594 -85.8908 112° Southeast 513 590 27,200 919 Climbing Chicago Center
Sat 02:58:38 PM 41.8053 -85.7078 112° Southeast 524 603 28,900 1,210 Climbing Chicago Center
Sat 02:59:40 PM 41.7114 -85.5764 134° Southeast 496 571 29,700 871 Climbing Chicago Center
Sat 03:00:42 PM 41.5875 -85.4625 145° Southeast 486 559 30,700 634 Climbing Chicago Center
Sat 03:01:43 PM 41.4750 -85.3550 144° Southeast 491 565 31,000 -98 Climbing Chicago Center
Sat 03:02:45 PM 41.3583 -85.2450 145° Southeast 509 586 30,500 -1,258 Descending Chicago Center
Sat 03:03:47 PM 41.2442 -85.1375 145° Southeast 509 586 28,400 -2,000 Descending Chicago Center
Sat 03:04:48 PM 41.1369 -85.0381 145° Southeast 485 558 26,400 -1,951 Descending Chicago Center
Sat 03:05:50 PM 41.0372 -84.9467 145° Southeast 449 517 24,400 -1,645 Descending Chicago Center
Sat 03:06:52 PM 40.9169 -84.8367 145° Southeast 440 506 23,000 -683 Descending Chicago Center
Sat 03:07:53 PM 40.8350 -84.7125 131° Southeast 478 550 23,000  Level Chicago Center
Sat 03:08:55 PM 40.7842 -84.5508 113° Southeast 484 557 23,000  Level Chicago Center
Sat 03:09:57 PM 40.7358 -84.3972 113° Southeast 465 535 23,000 -293 Level Chicago Center
Sat 03:10:58 PM 40.6875 -84.2419 112° Southeast 459 528 22,400 -1,415 Descending Chicago Center
Sat 03:12:00 PM 40.6389 -84.0886 113° Southeast 458 527 20,100 -2,098 Descending Chicago Center
Sat 03:13:01 PM 40.5956 -83.9517 113° Southeast 421 484 18,100 -2,000 Descending Chicago Center
Sat 03:14:03 PM 40.5450 -83.7950 113° Southeast 394 453 16,000 -1,843 Descending Chicago Center
Sat 03:15:08 PM 40.5008 -83.6592 113° Southeast 372 428 14,200 -1,605 Descending Indianapolis Center
Sat 03:15:29 PM 40.4925 -83.6322 112° Southeast 374 430 13,700 -1,672 Descending Indianapolis Center
Sat 03:16:09 PM 40.4622 -83.5397 113° Southeast 356 410 12,500 -1,548 Descending Indianapolis Center
Sat 03:16:31 PM 40.4550 -83.5125 109° East 361 415 12,100 -1,377 Descending Indianapolis Center
Sat 03:17:10 PM 40.4250 -83.4261 114° Southeast 337 388 11,100 -1,082 Descending Indianapolis Center
Sat 03:17:32 PM 40.4194 -83.4003 106° East 341 392 11,000 -393 Descending Indianapolis Center
Sat 03:18:11 PM 40.3844 -83.3258 122° Southeast 311 358 10,700 -677 Descending Indianapolis Center
Sat 03:18:34 PM 40.3739 -83.3022 120° Southeast 321 369 10,300 -590 Descending Indianapolis Center
Sat 03:19:12 PM 40.3336 -83.2214 123° Southeast 316 364 10,100 -393 Descending Indianapolis Center
Sat 03:19:35 PM 40.3183 -83.1850 119° Southeast 320 368 9,900  Descending Indianapolis Center
Sat 03:20:07 PM 40.2931 -83.1406 127° Southeast 313 360 10,100 190 Climbing Indianapolis Center
Sat 03:20:38 PM 40.2706 -83.0897 120° Southeast 318 366 10,100 -590 Level Indianapolis Center
Sat 03:21:08 PM 40.2419 -83.0389 126° Southeast 310 357 9,500 -1,377 Descending Indianapolis Center
Sat 03:21:39 PM 40.2236 -82.9956 119° Southeast 314 361 8,700 -1,600 Descending Indianapolis Center
Sat 03:22:08 PM 40.1981 -82.9469 125° Southeast 297 342 7,900 -1,574 Descending Indianapolis Center
Sat 03:22:40 PM 40.1783 -82.9072 123° Southeast 300 345 7,100 -1,475 Descending Indianapolis Center
Sat 03:23:09 PM 40.1514 -82.8628 128° Southeast 279 321 6,400 -968 Descending Indianapolis Center
Sat 03:23:42 PM 40.1333 -82.8269 123° Southeast 284 327 6,100 -492 Descending Indianapolis Center
Sat 03:24:10 PM 40.1103 -82.7878 128° Southeast 241 277 5,900 -885 Descending Indianapolis Center
Sat 03:24:43 PM 40.0942 -82.7558 123° Southeast 257 296 5,200 -1,377 Descending Indianapolis Center
Sat 03:25:11 PM 40.0683 -82.7183 132° Southeast 240 276 4,500 -1,258 Descending Indianapolis Center
Sat 03:25:45 PM 40.0417 -82.7072 162° South 255 293 3,900 -1,475 Descending Indianapolis Center
Sat 03:26:12 PM 40.0117 -82.7175 195° South 188 216 3,000 -1,258 Descending Indianapolis Center
Sat 03:26:47 PM 39.9986 -82.7328 222° Southwest 207 238 2,600 -393 Descending Indianapolis Center
Sat 03:27:13 PM 39.9931 -82.7611 256° West 136 157 2,600 -393 Level Indianapolis Center
Sat 03:27:48 PM 39.9964 -82.7889 279° West 156 180 2,200 -627 Descending Indianapolis Center
Sat 03:28:20 PM 39.9964 -82.8133 270° West 123 142 1,900 -581 Descending Indianapolis Center
Sat 03:28:50 PM 39.9994 -82.8353 280° West 139 160 1,600 -655 Descending Indianapolis Center
Sat 03:29:15 PM 39.9989 -82.8547 268° West 125 144 1,300 -295 Descending Indianapolis Center
Sat 03:29:51 PM 40.0022 -82.8778 281° West 136 157 1,300  Level Indianapolis Center

Login

Don't have an account? Register now (free) for customized features, flight alerts, and more!